Time;durP1;ratioP1;P1;durP2;ratioP2;P2;SDS_P1;SDS_P2;PMS_P1;PMS_P2;Temp;Humidity;BMP_temperature;BMP_pressure;BME280_temperature;BME280_humidity;BME280_pressure;Samples;Min_cycle;Max_cycle;Signal;HPM_P1;HPM_P2
2023/02/19 00:01:54;;;;;;;6.10;4.95;;;;;;;;;;6225183;22;20362;-89
2023/02/19 00:04:29;;;;;;;6.53;4.85;;;;;;;;;;6248979;22;20019;-89
2023/02/19 00:06:58;;;;;;;6.28;5.50;;;;;;;;;;6224714;22;20075;-88
2023/02/19 00:09:26;;;;;;;5.82;4.97;;;;;;;;;;6225206;22;20027;-88
2023/02/19 00:12:04;;;;;;;7.35;5.18;;;;;;;;;;6249287;22;20011;-90
2023/02/19 00:14:33;;;;;;;6.88;6.18;;;;;;;;;;6224908;22;20489;-89
2023/02/19 00:17:01;;;;;;;8.02;5.97;;;;;;;;;;6224133;22;20764;-88
2023/02/19 00:19:28;;;;;;;7.82;6.35;;;;;;;;;;6223051;22;20015;-88
2023/02/19 00:22:02;;;;;;;8.88;6.45;;;;;;;;;;6224199;22;20016;-89
2023/02/19 00:24:31;;;;;;;6.10;5.32;;;;;;;;;;6226686;22;20015;-91
2023/02/19 00:26:58;;;;;;;10.48;6.95;;;;;;;;;;6225695;22;20016;-89
2023/02/19 00:29:26;;;;;;;7.57;5.53;;;;;;;;;;6265082;22;20070;-87
2023/02/19 00:31:55;;;;;;;7.38;5.57;;;;;;;;;;6316283;22;20447;-88
2023/02/19 00:34:22;;;;;;;6.03;5.03;;;;;;;;;;6278927;22;20026;-87
2023/02/19 00:36:49;;;;;;;6.55;5.40;;;;;;;;;;6279601;22;20011;-88
2023/02/19 00:39:20;;;;;;;5.78;4.90;;;;;;;;;;6311040;22;20034;-88
2023/02/19 00:41:48;;;;;;;8.48;6.15;;;;;;;;;;6278601;22;20007;-88
2023/02/19 00:44:15;;;;;;;8.02;5.43;;;;;;;;;;6279126;22;20018;-87
2023/02/19 00:46:45;;;;;;;6.35;5.18;;;;;;;;;;6304635;22;20022;-89
2023/02/19 00:49:15;;;;;;;6.60;4.78;;;;;;;;;;6277948;22;20023;-89
2023/02/19 00:51:42;;;;;;;6.90;5.32;;;;;;;;;;6288358;22;20011;-88
2023/02/19 00:54:10;;;;;;;12.35;4.85;;;;;;;;;;6252348;22;20023;-88
2023/02/19 00:56:39;;;;;;;5.88;4.70;;;;;;;;;;6305682;22;20011;-88
2023/02/19 00:59:06;;;;;;;7.93;5.28;;;;;;;;;;6277672;22;20015;-88
2023/02/19 01:01:34;;;;;;;7.57;5.28;;;;;;;;;;6276951;22;20394;-88
2023/02/19 01:04:01;;;;;;;5.65;4.20;;;;;;;;;;6316308;22;20023;-88
2023/02/19 01:06:31;;;;;;;6.03;5.40;;;;;;;;;;6305541;22;20011;-88
2023/02/19 01:08:59;;;;;;;5.28;4.03;;;;;;;;;;6252255;22;20370;-88
2023/02/19 01:11:27;;;;;;;6.03;4.78;;;;;;;;;;6304759;22;20011;-88
2023/02/19 01:13:58;;;;;;;5.72;4.10;;;;;;;;;;6253326;22;20383;-89
2023/02/19 01:16:29;;;;;;;3.90;3.35;;;;;;;;;;6253254;22;20015;-88
2023/02/19 01:19:00;;;;;;;4.68;3.95;;;;;;;;;;6278433;22;20030;-88
2023/02/19 01:21:28;;;;;;;4.82;3.67;;;;;;;;;;6276764;22;20316;-88
2023/02/19 01:23:57;;;;;;;3.95;3.20;;;;;;;;;;6305146;22;20323;-88
2023/02/19 01:26:32;;;;;;;3.45;2.78;;;;;;;;;;6286786;22;20022;-88
2023/02/19 01:29:01;;;;;;;4.80;4.00;;;;;;;;;;6247305;22;20016;-88
2023/02/19 01:31:31;;;;;;;4.88;3.47;;;;;;;;;;6281284;22;20016;-89
2023/02/19 01:34:00;;;;;;;3.90;3.47;;;;;;;;;;6275284;22;20011;-88
2023/02/19 01:36:29;;;;;;;5.10;3.55;;;;;;;;;;6272880;22;20019;-88
2023/02/19 01:39:02;;;;;;;4.22;3.15;;;;;;;;;;6275234;22;20012;-88
2023/02/19 01:41:29;;;;;;;5.25;3.15;;;;;;;;;;6245729;22;20011;-87
2023/02/19 01:44:01;;;;;;;4.50;2.72;;;;;;;;;;6274012;22;20015;-88
2023/02/19 01:46:31;;;;;;;;;;;;;;;;;;6274597;22;20016;-88
2023/02/19 01:49:02;;;;;;;2.97;2.53;;;;;;;;;;6273781;22;19919;-88
2023/02/19 01:51:30;;;;;;;3.60;2.72;;;;;;;;;;6282245;22;20016;-88
2023/02/19 01:54:00;;;;;;;2.50;1.95;;;;;;;;;;6246220;22;20031;-88
2023/02/19 01:56:30;;;;;;;3.08;2.78;;;;;;;;;;6272570;22;20027;-88
2023/02/19 01:59:02;;;;;;;3.13;2.25;;;;;;;;;;6246642;22;20023;-88
2023/02/19 02:01:29;;;;;;;2.47;2.15;;;;;;;;;;6281005;22;20009;-88
2023/02/19 02:04:01;;;;;;;2.42;1.75;;;;;;;;;;6282461;22;20022;-88
2023/02/19 02:06:31;;;;;;;2.45;1.55;;;;;;;;;;6272002;22;20347;-88
2023/02/19 02:11:50;;;;;;;2.55;1.80;;;;;;;;;;6281986;22;20011;-88
2023/02/19 02:14:22;;;;;;;2.20;1.67;;;;;;;;;;6273647;22;20018;-88
2023/02/19 02:16:56;;;;;;;2.08;1.58;;;;;;;;;;6282823;22;20336;-88
2023/02/19 03:41:09;;;;;;;2.70;2.05;;;;;;;;;;6211691;23;20044;-88
2023/02/19 03:43:41;;;;;;;2.72;2.20;;;;;;;;;;6196541;23;20030;-87
2023/02/19 03:46:12;;;;;;;2.15;1.48;;;;;;;;;;6220979;23;20012;-88
2023/02/19 03:48:46;;;;;;;2.60;2.13;;;;;;;;;;6185746;23;20020;-88
2023/02/19 03:51:24;;;;;;;3.30;2.17;;;;;;;;;;6193408;23;20020;-88
2023/02/19 03:53:57;;;;;;;5.03;1.85;;;;;;;;;;6197143;23;20012;-88
2023/02/19 03:56:30;;;;;;;3.08;2.05;;;;;;;;;;6197814;23;20017;-87
2023/02/19 03:59:02;;;;;;;2.20;1.88;;;;;;;;;;6192949;23;20024;-87
2023/02/19 04:01:32;;;;;;;2.70;2.17;;;;;;;;;;6223383;23;20013;-88
2023/02/19 04:04:02;;;;;;;7.72;2.22;;;;;;;;;;6188055;23;20361;-87
2023/02/19 04:06:31;;;;;;;2.08;1.90;;;;;;;;;;6162041;23;20081;-88
2023/02/19 04:09:01;;;;;;;3.10;2.25;;;;;;;;;;6186527;23;20341;-88
2023/02/19 04:11:31;;;;;;;3.42;2.13;;;;;;;;;;6186460;23;20012;-87
2023/02/19 04:14:05;;;;;;;3.13;2.20;;;;;;;;;;6221693;23;20020;-87
2023/02/19 04:16:34;;;;;;;2.35;1.80;;;;;;;;;;6187688;23;20020;-88
2023/02/19 04:19:05;;;;;;;2.88;2.38;;;;;;;;;;6187791;23;20460;-87
2023/02/19 04:21:33;;;;;;;7.28;3.38;;;;;;;;;;6213785;23;20020;-87
2023/02/19 04:24:03;;;;;;;3.78;2.95;;;;;;;;;;6213514;23;20020;-87
2023/02/19 04:26:32;;;;;;;2.92;2.35;;;;;;;;;;6214506;23;20016;-87
2023/02/19 04:29:00;;;;;;;3.97;2.40;;;;;;;;;;6212613;23;20024;-88
2023/02/19 04:31:28;;;;;;;3.90;3.53;;;;;;;;;;6187377;23;20052;-88
2023/02/19 04:33:55;;;;;;;6.70;3.33;;;;;;;;;;6212372;23;20345;-87
2023/02/19 04:36:22;;;;;;;3.03;2.60;;;;;;;;;;6162515;23;20330;-88
2023/02/19 04:38:50;;;;;;;2.55;2.35;;;;;;;;;;6192345;23;20098;-88
2023/02/19 04:41:17;;;;;;;3.30;2.42;;;;;;;;;;6186227;23;20021;-88
2023/02/19 04:43:46;;;;;;;2.67;2.47;;;;;;;;;;6185000;23;20020;-88
2023/02/19 04:46:13;;;;;;;2.97;2.25;;;;;;;;;;6186797;23;20020;-87
2023/02/19 04:48:41;;;;;;;2.80;2.53;;;;;;;;;;6163334;23;20016;-87
2023/02/19 04:51:09;;;;;;;4.22;2.40;;;;;;;;;;6184708;23;20015;-88
2023/02/19 04:53:37;;;;;;;3.72;3.30;;;;;;;;;;6212757;23;20013;-88
2023/02/19 04:56:08;;;;;;;3.85;2.60;;;;;;;;;;6196037;23;20016;-88
2023/02/19 04:58:35;;;;;;;3.60;3.22;;;;;;;;;;6220868;23;20016;-88
2023/02/19 05:01:04;;;;;;;3.55;2.70;;;;;;;;;;6212529;23;20036;-87
2023/02/19 05:03:33;;;;;;;3.00;2.50;;;;;;;;;;6213819;23;20012;-88
2023/02/19 05:06:02;;;;;;;2.83;2.30;;;;;;;;;;6160393;23;20028;-87
2023/02/19 05:08:30;;;;;;;2.72;2.10;;;;;;;;;;6214283;23;20012;-87
2023/02/19 05:10:58;;;;;;;3.15;2.33;;;;;;;;;;6213357;23;20021;-88
2023/02/19 05:13:25;;;;;;;3.63;3.03;;;;;;;;;;6186371;23;20017;-86
2023/02/19 05:15:57;;;;;;;4.75;2.60;;;;;;;;;;6221638;23;20455;-87
2023/02/19 05:18:26;;;;;;;3.08;2.60;;;;;;;;;;6186815;23;20468;-88
2023/02/19 05:20:54;;;;;;;3.97;3.38;;;;;;;;;;6214833;23;20020;-88
2023/02/19 05:23:21;;;;;;;2.97;2.10;;;;;;;;;;6222632;23;20021;-87
2023/02/19 05:25:48;;;;;;;4.13;2.83;;;;;;;;;;6212509;23;20364;-87
2023/02/19 05:28:19;;;;;;;3.50;2.88;;;;;;;;;;6186642;23;20016;-88
2023/02/19 05:30:48;;;;;;;3.40;2.65;;;;;;;;;;6212993;23;20017;-87
2023/02/19 05:33:17;;;;;;;4.57;3.33;;;;;;;;;;6210620;23;20040;-87
2023/02/19 05:35:47;;;;;;;3.88;2.97;;;;;;;;;;6213260;23;20352;-87
2023/02/19 05:38:15;;;;;;;3.38;2.70;;;;;;;;;;6186272;23;20027;-88
2023/02/19 05:40:42;;;;;;;3.67;3.15;;;;;;;;;;6213007;23;20020;-88
2023/02/19 05:43:10;;;;;;;4.03;3.20;;;;;;;;;;6186776;23;20347;-88
2023/02/19 05:45:38;;;;;;;3.78;3.05;;;;;;;;;;6213680;23;20013;-88
2023/02/19 05:48:06;;;;;;;6.97;3.80;;;;;;;;;;6214608;23;20345;-88
2023/02/19 05:50:36;;;;;;;3.15;2.58;;;;;;;;;;6213300;23;20031;-88
2023/02/19 05:53:13;;;;;;;4.15;2.50;;;;;;;;;;6219928;23;20017;-88
2023/02/19 05:55:43;;;;;;;4.90;2.78;;;;;;;;;;6185279;23;20506;-88
2023/02/19 05:58:11;;;;;;;4.07;3.10;;;;;;;;;;6213182;23;20329;-89
2023/02/19 06:00:38;;;;;;;3.90;3.30;;;;;;;;;;6186893;23;20021;-88
2023/02/19 06:03:05;;;;;;;5.47;3.92;;;;;;;;;;6212576;23;20019;-88
2023/02/19 06:05:33;;;;;;;4.63;4.00;;;;;;;;;;6184881;23;20024;-88
2023/02/19 06:08:00;;;;;;;4.85;3.75;;;;;;;;;;6186706;23;20020;-88
2023/02/19 06:10:29;;;;;;;4.32;3.75;;;;;;;;;;6186238;23;20376;-88
2023/02/19 06:12:56;;;;;;;4.75;3.72;;;;;;;;;;6187168;23;20019;-88
2023/02/19 06:15:24;;;;;;;4.32;3.47;;;;;;;;;;6160846;23;20016;-89
2023/02/19 06:17:51;;;;;;;4.40;3.30;;;;;;;;;;6186416;23;20495;-87
2023/02/19 06:20:18;;;;;;;5.43;3.78;;;;;;;;;;6214509;23;20016;-89
2023/02/19 06:22:46;;;;;;;5.63;3.72;;;;;;;;;;6189185;23;20009;-89
2023/02/19 06:25:13;;;;;;;4.82;3.70;;;;;;;;;;6249745;23;20044;-88
2023/02/19 06:27:42;;;;;;;4.28;3.35;;;;;;;;;;6241492;23;20068;-88
2023/02/19 06:30:11;;;;;;;6.65;4.30;;;;;;;;;;6234941;22;20478;-87
2023/02/19 06:32:46;;;;;;;6.32;3.47;;;;;;;;;;6299386;22;20030;-89
2023/02/19 06:40:17;;;;;;;4.55;3.88;;;;;;;;;;6306738;22;20015;-92
2023/02/19 06:42:46;;;;;;;5.03;3.30;;;;;;;;;;6267910;22;20015;-90
2023/02/19 06:45:14;;;;;;;4.85;4.03;;;;;;;;;;6295576;22;20029;-92
2023/02/19 06:47:48;;;;;;;4.97;4.25;;;;;;;;;;6233995;22;20023;-93
2023/02/19 06:50:16;;;;;;;4.57;3.25;;;;;;;;;;6255301;22;20011;-91
2023/02/19 06:52:46;;;;;;;4.80;3.63;;;;;;;;;;6254787;22;20022;-91
2023/02/19 06:55:14;;;;;;;4.50;3.33;;;;;;;;;;6255120;22;20016;-91
2023/02/19 06:57:42;;;;;;;4.13;2.95;;;;;;;;;;6256048;22;20019;-92
2023/02/19 07:00:15;;;;;;;4.72;4.03;;;;;;;;;;6280728;22;20027;-90
2023/02/19 07:02:44;;;;;;;5.43;4.32;;;;;;;;;;6254737;22;20033;-91
2023/02/19 07:05:13;;;;;;;4.85;4.30;;;;;;;;;;6256138;22;20023;-90
2023/02/19 07:07:41;;;;;;;5.32;3.75;;;;;;;;;;6255812;22;20015;-90
2023/02/19 07:10:09;;;;;;;4.95;3.35;;;;;;;;;;6256390;22;20030;-92
2023/02/19 07:12:38;;;;;;;4.85;3.45;;;;;;;;;;6256227;22;20023;-91
2023/02/19 07:15:06;;;;;;;5.35;3.78;;;;;;;;;;6283920;22;20015;-91
2023/02/19 07:17:36;;;;;;;6.75;4.43;;;;;;;;;;6283100;22;20023;-91
2023/02/19 07:20:07;;;;;;;6.20;3.95;;;;;;;;;;6257929;22;20030;-93
2023/02/19 07:22:38;;;;;;;5.00;4.50;;;;;;;;;;6258085;22;20327;-91
2023/02/19 07:25:08;;;;;;;5.10;3.88;;;;;;;;;;6257839;22;20015;-91
2023/02/19 07:27:36;;;;;;;5.03;4.03;;;;;;;;;;6230708;22;20038;-92
2023/02/19 07:30:06;;;;;;;5.13;3.72;;;;;;;;;;6256434;22;20020;-91
2023/02/19 07:32:41;;;;;;;6.30;3.45;;;;;;;;;;6283564;22;20021;-90
2023/02/19 07:35:10;;;;;;;5.85;3.83;;;;;;;;;;6255387;22;20019;-91
2023/02/19 07:37:38;;;;;;;4.20;3.78;;;;;;;;;;6255929;22;20015;-91
2023/02/19 07:40:07;;;;;;;5.45;4.38;;;;;;;;;;6250842;22;20016;-91
2023/02/19 07:42:41;;;;;;;5.25;3.90;;;;;;;;;;6287651;22;20020;-91
2023/02/19 07:45:20;;;;;;;4.90;3.83;;;;;;;;;;6277960;22;20358;-91
2023/02/19 07:47:49;;;;;;;4.00;3.50;;;;;;;;;;6155305;23;20020;-88
2023/02/19 07:50:16;;;;;;;4.68;3.85;;;;;;;;;;6157207;23;20017;-88
2023/02/19 07:52:44;;;;;;;3.95;3.53;;;;;;;;;;6154718;23;20013;-88
2023/02/19 07:55:11;;;;;;;4.60;3.38;;;;;;;;;;6154365;23;20022;-88
2023/02/19 07:57:41;;;;;;;4.38;3.45;;;;;;;;;;6153636;23;20037;-89
2023/02/19 08:00:11;;;;;;;5.50;3.75;;;;;;;;;;6164402;22;20309;-88
2023/02/19 08:03:00;;;;;;;4.88;3.97;;;;;;;;;;6251571;23;20012;-88
2023/02/19 08:05:30;;;;;;;3.65;3.28;;;;;;;;;;6251620;23;20016;-87
2023/02/19 08:07:58;;;;;;;5.30;3.80;;;;;;;;;;6242269;23;20023;-89
2023/02/19 08:13:25;;;;;;;5.20;4.13;;;;;;;;;;6175435;23;20345;-89
2023/02/19 08:15:53;;;;;;;5.03;3.13;;;;;;;;;;6187869;23;20480;-89
2023/02/19 08:18:22;;;;;;;3.70;3.38;;;;;;;;;;6212086;23;20023;-89
2023/02/19 09:21:31;;;;;;;5.90;3.08;;;;;;;;;;6267112;22;20451;-89
2023/02/19 09:23:59;;;;;;;4.28;3.45;;;;;;;;;;6273275;22;20447;-89
2023/02/19 09:26:26;;;;;;;4.13;3.70;;;;;;;;;;6245592;22;20016;-88
2023/02/19 09:28:54;;;;;;;4.45;3.88;;;;;;;;;;6246385;22;20031;-89
2023/02/19 09:31:22;;;;;;;4.65;3.03;;;;;;;;;;6272897;22;20022;-89
2023/02/19 09:33:49;;;;;;;4.28;3.03;;;;;;;;;;6221865;22;20039;-89
2023/02/19 09:36:18;;;;;;;5.57;4.25;;;;;;;;;;6247263;22;20026;-89
2023/02/19 09:38:47;;;;;;;4.18;3.10;;;;;;;;;;6221031;22;20020;-88
2023/02/19 10:12:16;;;;;;;3.13;2.60;;;;;;;;;;6209175;23;20012;-87
2023/02/19 10:14:46;;;;;;;4.35;2.75;;;;;;;;;;6212000;23;20020;-89
2023/02/19 10:17:21;;;;;;;3.90;2.63;;;;;;;;;;6184125;23;20012;-89
2023/02/19 10:19:49;;;;;;;3.72;2.67;;;;;;;;;;6224320;23;20035;-88
2023/02/19 10:44:43;;;;;;;3.88;2.55;;;;;;;;;;6236385;22;20020;-89
2023/02/19 10:47:16;;;;;;;3.30;2.33;;;;;;;;;;6253343;23;20016;-88
2023/02/19 10:49:44;;;;;;;3.33;2.28;;;;;;;;;;6251724;22;20012;-88
2023/02/19 10:52:16;;;;;;;7.53;2.95;;;;;;;;;;6245612;22;20024;-88
2023/02/19 10:54:44;;;;;;;4.20;2.80;;;;;;;;;;6257010;22;20012;-88
2023/02/19 10:57:31;;;;;;;3.72;2.78;;;;;;;;;;6221079;22;20518;-89
2023/02/19 11:00:02;;;;;;;5.63;2.60;;;;;;;;;;6246056;22;20023;-89
2023/02/19 11:02:31;;;;;;;4.53;2.83;;;;;;;;;;6256200;22;20016;-89
2023/02/19 11:05:19;;;;;;;3.03;2.55;;;;;;;;;;6276546;22;20359;-89
2023/02/19 11:07:48;;;;;;;5.25;2.88;;;;;;;;;;6237970;22;20016;-89
2023/02/19 11:10:27;;;;;;;5.22;2.95;;;;;;;;;;6249730;22;20027;-90
2023/02/19 11:12:56;;;;;;;4.45;3.13;;;;;;;;;;6285367;22;20478;-89
2023/02/19 11:15:27;;;;;;;3.20;2.85;;;;;;;;;;6247704;22;20012;-89
2023/02/19 11:17:59;;;;;;;3.60;2.25;;;;;;;;;;6258748;22;20012;-90
2023/02/19 11:20:29;;;;;;;4.38;2.03;;;;;;;;;;6248058;22;20020;-90
2023/02/19 11:22:58;;;;;;;3.08;2.78;;;;;;;;;;6247255;22;20019;-89
2023/02/19 11:25:26;;;;;;;5.80;2.88;;;;;;;;;;6248664;22;20016;-89
2023/02/19 11:27:56;;;;;;;4.95;2.72;;;;;;;;;;6248186;22;20493;-89
2023/02/19 11:30:38;;;;;;;3.78;1.77;;;;;;;;;;6275061;22;20019;-90
2023/02/19 11:33:26;;;;;;;7.32;2.67;;;;;;;;;;6285642;22;20019;-89
2023/02/19 11:35:59;;;;;;;2.80;2.05;;;;;;;;;;6247287;22;20451;-89
2023/02/19 11:38:26;;;;;;;2.70;1.98;;;;;;;;;;6285813;22;20035;-89
2023/02/19 11:41:00;;;;;;;3.15;1.80;;;;;;;;;;6222380;22;20028;-89
2023/02/19 11:43:40;;;;;;;3.53;2.20;;;;;;;;;;6230565;22;20023;-89
2023/02/19 11:46:17;;;;;;;5.05;2.55;;;;;;;;;;6285001;22;20026;-89
2023/02/19 11:48:54;;;;;;;1.65;1.38;;;;;;;;;;6247745;22;20195;-89
2023/02/19 11:51:42;;;;;;;3.72;1.63;;;;;;;;;;6248194;22;20027;-89
2023/02/19 11:54:18;;;;;;;2.05;1.65;;;;;;;;;;6241588;22;20019;-89
2023/02/19 11:56:49;;;;;;;2.60;1.92;;;;;;;;;;6285453;22;20019;-89
2023/02/19 11:59:22;;;;;;;2.55;1.58;;;;;;;;;;6272319;22;20031;-89
2023/02/19 12:02:14;;;;;;;3.45;1.85;;;;;;;;;;6272920;22;20023;-89
2023/02/19 12:05:11;;;;;;;2.60;1.95;;;;;;;;;;6269475;22;20026;-89
2023/02/19 12:08:02;;;;;;;4.88;3.85;;;;;;;;;;6265788;22;20023;-89
2023/02/19 12:10:36;;;;;;;3.55;1.70;;;;;;;;;;6273134;22;20042;-89
2023/02/19 12:13:11;;;;;;;4.32;2.00;;;;;;;;;;6272061;22;20027;-89
2023/02/19 12:15:44;;;;;;;2.38;1.88;;;;;;;;;;6243605;22;20020;-91
2023/02/19 12:18:34;;;;;;;3.45;1.98;;;;;;;;;;6293706;22;20004;-89
2023/02/19 12:21:09;;;;;;;3.28;1.90;;;;;;;;;;6306651;22;20059;-89
2023/02/19 12:23:47;;;;;;;3.45;2.03;;;;;;;;;;6312901;22;20119;-89
2023/02/19 12:26:22;;;;;;;2.63;1.90;;;;;;;;;;6273717;22;20015;-89
2023/02/19 12:29:12;;;;;;;5.00;2.30;;;;;;;;;;6294900;22;20335;-90
2023/02/19 12:31:55;;;;;;;3.13;1.70;;;;;;;;;;6264844;22;20020;-90
2023/02/19 12:34:45;;;;;;;3.30;2.25;;;;;;;;;;6291981;22;20016;-89
2023/02/19 12:37:23;;;;;;;4.47;1.77;;;;;;;;;;6278656;22;20023;-89
2023/02/19 12:39:59;;;;;;;2.88;2.25;;;;;;;;;;6273545;22;20022;-89
2023/02/19 12:42:40;;;;;;;2.60;2.40;;;;;;;;;;6285926;22;20188;-89
2023/02/19 12:45:16;;;;;;;3.15;1.83;;;;;;;;;;6285390;22;20018;-89
2023/02/19 12:47:48;;;;;;;4.00;2.20;;;;;;;;;;6284919;22;20015;-89
2023/02/19 12:50:21;;;;;;;3.93;2.60;;;;;;;;;;6283076;22;20015;-90
2023/02/19 13:15:31;;;;;;;4.05;2.97;;;;;;;;;;6241890;23;20020;-89
2023/02/19 13:17:59;;;;;;;3.70;2.60;;;;;;;;;;6255442;23;20013;-88
2023/02/19 13:20:30;;;;;;;5.47;2.50;;;;;;;;;;6223511;23;20012;-88
2023/02/19 13:25:58;;;;;;;4.43;2.55;;;;;;;;;;6217036;23;20008;-89
2023/02/19 13:28:40;;;;;;;7.57;2.67;;;;;;;;;;6254908;23;20329;-88
2023/02/19 13:31:21;;;;;;;3.20;2.05;;;;;;;;;;6247366;23;20016;-89
2023/02/19 13:33:58;;;;;;;3.42;1.83;;;;;;;;;;6192826;23;20023;-88
2023/02/19 13:36:26;;;;;;;5.00;2.00;;;;;;;;;;6190222;23;20016;-88
2023/02/19 13:38:56;;;;;;;6.07;2.33;;;;;;;;;;6217042;23;20016;-87
2023/02/19 13:41:31;;;;;;;2.60;1.60;;;;;;;;;;6243717;23;20019;-90
2023/02/19 13:44:01;;;;;;;3.05;1.80;;;;;;;;;;6254641;23;20037;-89
2023/02/19 13:46:39;;;;;;;3.22;1.98;;;;;;;;;;6191071;23;20027;-89
2023/02/19 13:49:37;;;;;;;9.18;2.65;;;;;;;;;;6253549;23;20023;-89
2023/02/19 13:52:33;;;;;;;2.90;2.22;;;;;;;;;;6244649;23;20019;-90
2023/02/19 13:55:33;;;;;;;6.53;3.05;;;;;;;;;;6253936;23;20016;-90
2023/02/19 13:58:34;;;;;;;4.57;2.35;;;;;;;;;;6217094;23;20016;-90
2023/02/19 14:01:02;;;;;;;2.50;2.20;;;;;;;;;;6220584;23;20020;-89
2023/02/19 14:03:40;;;;;;;2.67;2.38;;;;;;;;;;6255240;23;20020;-90
2023/02/19 14:06:09;;;;;;;6.05;2.83;;;;;;;;;;6245307;22;20020;-89
2023/02/19 14:08:51;;;;;;;3.72;2.17;;;;;;;;;;6244334;23;20031;-89
2023/02/19 14:11:57;;;;;;;3.95;2.85;;;;;;;;;;6248573;23;20008;-89
2023/02/19 14:14:28;;;;;;;2.17;1.73;;;;;;;;;;6245321;23;20012;-90
2023/02/19 14:17:17;;;;;;;2.58;1.85;;;;;;;;;;6257526;23;20019;-90
2023/02/19 14:19:52;;;;;;;3.10;2.30;;;;;;;;;;6221563;23;20022;-90
2023/02/19 14:31:17;;;;;;;3.70;2.08;;;;;;;;;;6267651;22;20036;-89
2023/02/19 14:33:46;;;;;;;6.63;2.85;;;;;;;;;;6266563;22;20019;-89
2023/02/19 14:45:16;;;;;;;6.97;2.88;;;;;;;;;;6221515;23;20016;-90
2023/02/19 14:47:44;;;;;;;5.47;1.73;;;;;;;;;;6190204;23;20021;-90
2023/02/19 14:50:16;;;;;;;2.90;1.70;;;;;;;;;;6190402;23;20036;-89
2023/02/19 14:53:05;;;;;;;6.90;2.20;;;;;;;;;;6221988;22;20364;-90
2023/02/19 14:55:35;;;;;;;5.68;2.38;;;;;;;;;;6192496;23;20013;-90
2023/02/19 14:58:05;;;;;;;2.83;2.00;;;;;;;;;;6183175;23;20017;-89
2023/02/19 15:00:36;;;;;;;4.65;2.03;;;;;;;;;;6155173;23;20017;-90
2023/02/19 15:03:04;;;;;;;3.70;2.15;;;;;;;;;;6193543;23;20036;-90
2023/02/19 15:05:35;;;;;;;3.28;2.42;;;;;;;;;;6182037;23;20028;-90
2023/02/19 15:08:06;;;;;;;2.60;1.83;;;;;;;;;;6193512;23;20357;-90
2023/02/19 15:10:35;;;;;;;3.83;2.38;;;;;;;;;;6189678;23;20457;-91
2023/02/19 15:13:04;;;;;;;4.47;1.73;;;;;;;;;;6184295;23;20024;-91
2023/02/19 15:15:36;;;;;;;6.32;2.53;;;;;;;;;;6192176;23;20032;-91
2023/02/19 15:18:04;;;;;;;4.07;2.25;;;;;;;;;;6195584;23;20348;-91
2023/02/19 15:20:35;;;;;;;5.60;2.97;;;;;;;;;;6184881;23;20036;-91
2023/02/19 15:23:05;;;;;;;3.78;2.33;;;;;;;;;;6157389;23;20032;-90
2023/02/19 15:25:34;;;;;;;5.18;2.85;;;;;;;;;;6155044;23;20021;-90
2023/02/19 15:28:20;;;;;;;4.63;2.50;;;;;;;;;;6182324;23;20031;-90
2023/02/19 15:30:49;;;;;;;4.38;2.40;;;;;;;;;;6191089;23;20020;-91
2023/02/19 15:33:18;;;;;;;4.13;2.72;;;;;;;;;;6185055;23;20032;-90
2023/02/19 15:35:48;;;;;;;2.80;2.08;;;;;;;;;;6181992;23;20032;-90
2023/02/19 15:38:16;;;;;;;5.07;2.47;;;;;;;;;;6190615;23;20020;-90
2023/02/19 15:40:45;;;;;;;3.55;2.35;;;;;;;;;;6180109;23;20021;-90
2023/02/19 15:43:22;;;;;;;3.80;2.97;;;;;;;;;;6181727;23;20473;-91
2023/02/19 15:45:51;;;;;;;3.70;2.00;;;;;;;;;;6154942;23;20462;-91
2023/02/19 15:48:22;;;;;;;4.38;2.00;;;;;;;;;;6182246;23;20036;-91
2023/02/19 15:50:52;;;;;;;3.70;2.50;;;;;;;;;;6159017;23;20021;-90
2023/02/19 15:53:21;;;;;;;3.63;2.17;;;;;;;;;;6215959;23;20363;-91
2023/02/19 15:55:55;;;;;;;5.15;2.80;;;;;;;;;;6217493;23;20025;-91
2023/02/19 15:58:26;;;;;;;7.93;2.67;;;;;;;;;;6216352;23;20020;-90
2023/02/19 16:00:57;;;;;;;3.03;2.05;;;;;;;;;;6216985;23;20023;-91
2023/02/19 16:03:26;;;;;;;3.17;2.88;;;;;;;;;;6192770;23;20028;-91
2023/02/19 16:06:01;;;;;;;4.32;2.22;;;;;;;;;;6218002;23;20035;-91
2023/02/19 16:08:30;;;;;;;7.78;2.63;;;;;;;;;;6227406;23;20023;-91
2023/02/19 16:10:59;;;;;;;5.40;3.15;;;;;;;;;;6250386;22;20012;-90
2023/02/19 16:13:28;;;;;;;5.10;2.53;;;;;;;;;;6192489;23;20027;-90
2023/02/19 16:16:00;;;;;;;5.70;3.65;;;;;;;;;;6192098;23;20067;-91
2023/02/19 16:18:27;;;;;;;3.78;2.55;;;;;;;;;;6253887;23;20012;-91
2023/02/19 16:20:55;;;;;;;4.60;2.97;;;;;;;;;;6242235;23;20016;-91
2023/02/19 16:23:24;;;;;;;5.13;2.95;;;;;;;;;;6254384;23;20022;-90
2023/02/19 16:25:58;;;;;;;5.28;3.08;;;;;;;;;;6216828;23;20016;-91
2023/02/19 16:28:28;;;;;;;6.00;2.95;;;;;;;;;;6254920;23;20012;-91
2023/02/19 16:30:58;;;;;;;4.95;2.30;;;;;;;;;;6217050;23;20016;-91
2023/02/19 16:33:40;;;;;;;3.78;2.78;;;;;;;;;;6226855;23;20012;-91
2023/02/19 16:36:20;;;;;;;4.82;3.10;;;;;;;;;;6253128;23;20023;-91
2023/02/19 16:39:15;;;;;;;6.93;2.85;;;;;;;;;;6212448;23;20035;-91
2023/02/19 16:42:16;;;;;;;7.65;3.63;;;;;;;;;;6217787;23;20023;-91
2023/02/19 16:44:44;;;;;;;7.30;3.72;;;;;;;;;;6225605;23;20016;-91
2023/02/19 16:47:31;;;;;;;6.85;2.78;;;;;;;;;;6222385;23;20016;-90
2023/02/19 16:50:01;;;;;;;9.55;3.30;;;;;;;;;;6189731;23;20329;-91
2023/02/19 16:52:29;;;;;;;6.03;2.95;;;;;;;;;;6213730;23;20013;-90
2023/02/19 16:54:56;;;;;;;5.18;3.08;;;;;;;;;;6215860;23;20341;-90
2023/02/19 16:57:23;;;;;;;4.18;2.85;;;;;;;;;;6187102;23;20352;-90
2023/02/19 16:59:51;;;;;;;4.15;2.97;;;;;;;;;;6189432;23;20357;-90
2023/02/19 17:02:21;;;;;;;4.35;2.28;;;;;;;;;;6212049;23;20016;-91
2023/02/19 17:04:53;;;;;;;6.22;3.42;;;;;;;;;;6217944;23;20024;-91
2023/02/19 17:07:21;;;;;;;5.82;3.25;;;;;;;;;;6209157;23;20023;-91
2023/02/19 17:09:48;;;;;;;9.45;3.33;;;;;;;;;;6247542;23;20035;-91
2023/02/19 17:12:17;;;;;;;8.20;3.33;;;;;;;;;;6234706;23;20042;-90
2023/02/19 17:14:44;;;;;;;6.00;3.92;;;;;;;;;;6241684;23;20055;-91
2023/02/19 17:17:11;;;;;;;6.13;4.07;;;;;;;;;;6242198;23;20013;-90
2023/02/19 17:19:39;;;;;;;9.65;3.97;;;;;;;;;;6238681;23;20079;-91
2023/02/19 17:22:08;;;;;;;5.05;3.28;;;;;;;;;;6217458;23;20330;-91
2023/02/19 17:24:35;;;;;;;11.00;3.67;;;;;;;;;;6215321;23;20023;-91
2023/02/19 17:27:03;;;;;;;8.20;4.13;;;;;;;;;;6224121;23;20024;-90
2023/02/19 17:29:32;;;;;;;8.88;4.05;;;;;;;;;;6216199;23;20016;-90
2023/02/19 17:32:00;;;;;;;7.88;4.30;;;;;;;;;;6216585;23;20020;-90
2023/02/19 17:34:28;;;;;;;5.70;4.03;;;;;;;;;;6214051;23;20341;-89
2023/02/19 17:36:55;;;;;;;11.50;6.57;;;;;;;;;;6222555;23;20009;-90
2023/02/19 17:39:24;;;;;;;8.75;3.45;;;;;;;;;;6184681;23;20028;-90
2023/02/19 17:41:51;;;;;;;4.15;3.17;;;;;;;;;;6204060;23;20349;-90
2023/02/19 17:44:19;;;;;;;4.32;3.70;;;;;;;;;;6205745;23;20016;-90
2023/02/19 17:46:47;;;;;;;5.07;4.03;;;;;;;;;;6205742;23;20361;-90
2023/02/19 17:49:15;;;;;;;13.15;4.90;;;;;;;;;;6179094;23;20519;-90
2023/02/19 17:51:42;;;;;;;7.60;5.63;;;;;;;;;;6205911;23;20016;-90
2023/02/19 17:54:10;;;;;;;9.43;6.45;;;;;;;;;;6214928;23;20012;-90
2023/02/19 17:56:42;;;;;;;11.43;7.13;;;;;;;;;;6206845;23;20039;-90
2023/02/19 17:59:10;;;;;;;9.32;5.65;;;;;;;;;;6217481;23;20012;-90
2023/02/19 18:01:38;;;;;;;5.88;4.78;;;;;;;;;;6179685;23;20024;-90
2023/02/19 18:04:05;;;;;;;12.05;6.88;;;;;;;;;;6189701;23;20052;-90
2023/02/19 18:06:33;;;;;;;6.38;5.40;;;;;;;;;;6204991;23;20020;-90
2023/02/19 18:09:01;;;;;;;6.07;5.18;;;;;;;;;;6155042;23;20025;-90
2023/02/19 18:11:28;;;;;;;7.57;6.13;;;;;;;;;;6222157;23;20021;-91
2023/02/19 18:13:58;;;;;;;7.55;5.45;;;;;;;;;;6207524;23;20011;-90
2023/02/19 18:16:26;;;;;;;9.38;7.10;;;;;;;;;;6210126;23;20062;-91
2023/02/19 18:18:53;;;;;;;7.75;5.50;;;;;;;;;;6206094;23;20028;-91
2023/02/19 18:21:23;;;;;;;9.65;5.10;;;;;;;;;;6218002;23;20016;-91
2023/02/19 18:23:51;;;;;;;6.22;4.78;;;;;;;;;;6219546;23;20352;-89
2023/02/19 18:26:20;;;;;;;10.35;5.75;;;;;;;;;;6223412;23;20023;-90
2023/02/19 18:28:47;;;;;;;7.85;6.25;;;;;;;;;;6182581;23;20012;-91
2023/02/19 18:31:16;;;;;;;9.63;5.85;;;;;;;;;;6179729;23;20020;-90
2023/02/19 18:33:44;;;;;;;6.90;5.25;;;;;;;;;;6208435;23;20024;-90
2023/02/19 18:36:11;;;;;;;7.40;4.53;;;;;;;;;;6222141;23;20012;-91
2023/02/19 18:38:39;;;;;;;6.60;4.20;;;;;;;;;;6214332;23;20013;-91
2023/02/19 18:41:11;;;;;;;12.80;3.92;;;;;;;;;;6220055;23;20020;-90
2023/02/19 18:43:39;;;;;;;7.80;4.28;;;;;;;;;;6222991;23;20460;-91
2023/02/19 18:46:08;;;;;;;8.07;4.75;;;;;;;;;;6186052;23;20017;-90
2023/02/19 18:48:36;;;;;;;5.07;4.57;;;;;;;;;;6186826;23;20491;-91
2023/02/19 18:51:04;;;;;;;12.30;5.70;;;;;;;;;;6218990;23;20357;-91
2023/02/19 18:53:32;;;;;;;9.13;5.90;;;;;;;;;;6223135;23;20013;-91
2023/02/19 18:56:00;;;;;;;7.53;5.57;;;;;;;;;;6213629;23;20455;-91
2023/02/19 18:58:28;;;;;;;7.07;4.68;;;;;;;;;;6221695;23;20012;-91
2023/02/19 19:57:30;;;;;;;7.22;4.60;;;;;;;;;;6178544;23;20475;-91
2023/02/19 19:59:58;;;;;;;6.60;3.95;;;;;;;;;;6179864;23;20017;-91
2023/02/19 20:02:25;;;;;;;8.43;3.75;;;;;;;;;;6205988;23;20012;-90
2023/02/19 20:04:53;;;;;;;6.45;4.10;;;;;;;;;;6189538;23;20024;-89
2023/02/19 20:07:20;;;;;;;8.48;3.92;;;;;;;;;;6172305;23;20202;-91
2023/02/19 20:09:48;;;;;;;7.78;4.53;;;;;;;;;;6163020;23;20511;-91
2023/02/19 20:12:16;;;;;;;13.63;4.88;;;;;;;;;;6192874;23;20031;-91
2023/02/19 20:14:45;;;;;;;6.25;4.57;;;;;;;;;;6168577;23;20031;-90